sensor_id;sensor_type;location;lat;lon;timestamp;pressure;altitude;pressure_sealevel;temperature;humidity
21863;BME280;11096;51.338;12.524;2023-02-19T00:01:52;100059.56;;;9.28;100.00
21863;BME280;11096;51.338;12.524;2023-02-19T00:04:19;100050.69;;;9.32;100.00
21863;BME280;11096;51.338;12.524;2023-02-19T00:06:47;100049.19;;;9.28;100.00
21863;BME280;11096;51.338;12.524;2023-02-19T00:09:15;100047.13;;;9.33;100.00
21863;BME280;11096;51.338;12.524;2023-02-19T00:11:41;100044.78;;;9.42;100.00
21863;BME280;11096;51.338;12.524;2023-02-19T00:14:07;100053.78;;;9.37;100.00
21863;BME280;11096;51.338;12.524;2023-02-19T00:16:35;100041.34;;;9.42;100.00
21863;BME280;11096;51.338;12.524;2023-02-19T00:19:03;100044.91;;;9.41;100.00
21863;BME280;11096;51.338;12.524;2023-02-19T00:21:29;100041.56;;;9.39;100.00
21863;BME280;11096;51.338;12.524;2023-02-19T00:23:56;100045.34;;;9.48;100.00
21863;BME280;11096;51.338;12.524;2023-02-19T00:26:22;100035.13;;;9.44;100.00
21863;BME280;11096;51.338;12.524;2023-02-19T00:28:49;100032.97;;;9.38;100.00
21863;BME280;11096;51.338;12.524;2023-02-19T00:31:18;100031.56;;;9.33;100.00
21863;BME280;11096;51.338;12.524;2023-02-19T00:33:45;100035.72;;;9.22;100.00
21863;BME280;11096;51.338;12.524;2023-02-19T00:36:11;100029.66;;;9.09;100.00
21863;BME280;11096;51.338;12.524;2023-02-19T00:38:37;100037.53;;;9.08;100.00
21863;BME280;11096;51.338;12.524;2023-02-19T00:41:03;100029.47;;;9.12;100.00
21863;BME280;11096;51.338;12.524;2023-02-19T00:43:57;100025.09;;;9.13;100.00
21863;BME280;11096;51.338;12.524;2023-02-19T00:46:25;100025.50;;;9.07;100.00
21863;BME280;11096;51.338;12.524;2023-02-19T00:48:51;100026.34;;;9.07;100.00
21863;BME280;11096;51.338;12.524;2023-02-19T00:51:18;100019.06;;;8.99;100.00
21863;BME280;11096;51.338;12.524;2023-02-19T00:53:43;100007.75;;;9.00;100.00
21863;BME280;11096;51.338;12.524;2023-02-19T00:56:09;100013.06;;;8.99;100.00
21863;BME280;11096;51.338;12.524;2023-02-19T00:58:35;100008.06;;;8.96;100.00
21863;BME280;11096;51.338;12.524;2023-02-19T01:01:01;100011.50;;;8.96;100.00
21863;BME280;11096;51.338;12.524;2023-02-19T01:03:27;100010.09;;;8.91;100.00
21863;BME280;11096;51.338;12.524;2023-02-19T01:05:53;100016.44;;;8.87;100.00
21863;BME280;11096;51.338;12.524;2023-02-19T01:08:19;100014.41;;;8.77;100.00
21863;BME280;11096;51.338;12.524;2023-02-19T01:10:45;100015.94;;;8.94;100.00
21863;BME280;11096;51.338;12.524;2023-02-19T01:13:11;100017.00;;;8.77;100.00
21863;BME280;11096;51.338;12.524;2023-02-19T01:15:36;100024.78;;;8.77;100.00
21863;BME280;11096;51.338;12.524;2023-02-19T01:18:02;100017.94;;;8.76;100.00
21863;BME280;11096;51.338;12.524;2023-02-19T01:20:28;100014.81;;;8.71;100.00
21863;BME280;11096;51.338;12.524;2023-02-19T01:22:53;100007.41;;;8.65;100.00
21863;BME280;11096;51.338;12.524;2023-02-19T01:25:19;100013.72;;;8.61;100.00
21863;BME280;11096;51.338;12.524;2023-02-19T01:27:44;100004.19;;;8.62;100.00
21863;BME280;11096;51.338;12.524;2023-02-19T01:30:10;100001.91;;;8.57;100.00
21863;BME280;11096;51.338;12.524;2023-02-19T01:32:36;100008.38;;;8.50;100.00
21863;BME280;11096;51.338;12.524;2023-02-19T01:35:01;99996.66;;;8.44;100.00
21863;BME280;11096;51.338;12.524;2023-02-19T01:37:27;99975.19;;;8.42;100.00
21863;BME280;11096;51.338;12.524;2023-02-19T01:39:52;99978.88;;;8.52;100.00
21863;BME280;11096;51.338;12.524;2023-02-19T01:42:18;99981.34;;;8.54;100.00
21863;BME280;11096;51.338;12.524;2023-02-19T01:47:12;99966.94;;;8.50;100.00
21863;BME280;11096;51.338;12.524;2023-02-19T01:49:47;99950.56;;;10.43;100.00
21863;BME280;11096;51.338;12.524;2023-02-19T01:52:19;99962.78;;;8.74;100.00
21863;BME280;11096;51.338;12.524;2023-02-19T01:54:47;99954.28;;;8.72;100.00
21863;BME280;11096;51.338;12.524;2023-02-19T01:57:21;99943.84;;;8.74;100.00
21863;BME280;11096;51.338;12.524;2023-02-19T01:59:51;99941.47;;;8.84;100.00
21863;BME280;11096;51.338;12.524;2023-02-19T02:02:22;99937.50;;;8.78;100.00
21863;BME280;11096;51.338;12.524;2023-02-19T02:04:56;99933.72;;;8.84;100.00
21863;BME280;11096;51.338;12.524;2023-02-19T02:07:22;99931.34;;;8.66;100.00
21863;BME280;11096;51.338;12.524;2023-02-19T02:10:07;99915.09;;;8.64;100.00
21863;BME280;11096;51.338;12.524;2023-02-19T02:12:44;99909.03;;;8.51;100.00
21863;BME280;11096;51.338;12.524;2023-02-19T02:15:10;99909.44;;;8.45;100.00
21863;BME280;11096;51.338;12.524;2023-02-19T02:23:39;99886.56;;;9.30;100.00
21863;BME280;11096;51.338;12.524;2023-02-19T02:31:49;99869.56;;;9.00;100.00
21863;BME280;11096;51.338;12.524;2023-02-19T02:34:26;99857.41;;;8.88;100.00
21863;BME280;11096;51.338;12.524;2023-02-19T02:36:54;99864.38;;;9.00;100.00
21863;BME280;11096;51.338;12.524;2023-02-19T02:39:23;99846.44;;;8.97;100.00
21863;BME280;11096;51.338;12.524;2023-02-19T02:41:55;99857.19;;;8.78;100.00
21863;BME280;11096;51.338;12.524;2023-02-19T02:44:40;99841.66;;;8.91;100.00
21863;BME280;11096;51.338;12.524;2023-02-19T02:47:07;99839.06;;;8.78;100.00
21863;BME280;11096;51.338;12.524;2023-02-19T02:49:55;99842.97;;;8.71;100.00
21863;BME280;11096;51.338;12.524;2023-02-19T02:52:32;99838.66;;;8.71;100.00
21863;BME280;11096;51.338;12.524;2023-02-19T02:55:21;99837.91;;;8.69;100.00
21863;BME280;11096;51.338;12.524;2023-02-19T02:57:46;99842.75;;;8.61;100.00
21863;BME280;11096;51.338;12.524;2023-02-19T03:00:13;99832.97;;;8.79;100.00
21863;BME280;11096;51.338;12.524;2023-02-19T03:02:41;99833.47;;;8.71;100.00
21863;BME280;11096;51.338;12.524;2023-02-19T03:07:59;99827.56;;;8.82;100.00
21863;BME280;11096;51.338;12.524;2023-02-19T03:10:34;99834.50;;;8.81;100.00
21863;BME280;11096;51.338;12.524;2023-02-19T03:13:02;99826.84;;;8.80;100.00
21863;BME280;11096;51.338;12.524;2023-02-19T03:16:00;99818.63;;;8.73;100.00
21863;BME280;11096;51.338;12.524;2023-02-19T03:18:48;99794.06;;;8.66;100.00
21863;BME280;11096;51.338;12.524;2023-02-19T03:21:34;99798.31;;;8.67;100.00
21863;BME280;11096;51.338;12.524;2023-02-19T03:24:02;99788.88;;;8.66;100.00
21863;BME280;11096;51.338;12.524;2023-02-19T03:26:50;99796.66;;;8.66;100.00
21863;BME280;11096;51.338;12.524;2023-02-19T03:29:23;99798.84;;;8.59;100.00
21863;BME280;11096;51.338;12.524;2023-02-19T03:32:03;99800.91;;;8.67;100.00
21863;BME280;11096;51.338;12.524;2023-02-19T03:34:35;99795.28;;;9.50;100.00
21863;BME280;11096;51.338;12.524;2023-02-19T03:37:09;99803.19;;;9.10;100.00
21863;BME280;11096;51.338;12.524;2023-02-19T03:39:37;99802.81;;;9.03;100.00
21863;BME280;11096;51.338;12.524;2023-02-19T03:45:35;99798.66;;;9.14;100.00
21863;BME280;11096;51.338;12.524;2023-02-19T03:47:54;99795.34;;;8.99;100.00
21863;BME280;11096;51.338;12.524;2023-02-19T03:56:07;99775.94;;;9.05;100.00
21863;BME280;11096;51.338;12.524;2023-02-19T03:58:40;99774.47;;;9.00;100.00
21863;BME280;11096;51.338;12.524;2023-02-19T04:01:23;99775.84;;;9.06;100.00
21863;BME280;11096;51.338;12.524;2023-02-19T04:03:55;99764.44;;;9.09;100.00
21863;BME280;11096;51.338;12.524;2023-02-19T04:06:28;99767.94;;;9.08;100.00
21863;BME280;11096;51.338;12.524;2023-02-19T04:08:57;99779.06;;;8.97;100.00
21863;BME280;11096;51.338;12.524;2023-02-19T04:11:25;99774.59;;;8.99;100.00
21863;BME280;11096;51.338;12.524;2023-02-19T04:14:00;99782.88;;;9.04;100.00
21863;BME280;11096;51.338;12.524;2023-02-19T04:16:28;99782.16;;;9.02;100.00
21863;BME280;11096;51.338;12.524;2023-02-19T04:18:58;99778.44;;;9.06;100.00
21863;BME280;11096;51.338;12.524;2023-02-19T04:21:28;99785.34;;;9.06;100.00
21863;BME280;11096;51.338;12.524;2023-02-19T04:23:55;99784.34;;;9.08;100.00
21863;BME280;11096;51.338;12.524;2023-02-19T04:26:22;99792.53;;;9.02;100.00
21863;BME280;11096;51.338;12.524;2023-02-19T04:28:47;99797.19;;;8.97;100.00
21863;BME280;11096;51.338;12.524;2023-02-19T04:31:12;99816.47;;;8.93;100.00
21863;BME280;11096;51.338;12.524;2023-02-19T04:33:38;99804.03;;;8.98;100.00
21863;BME280;11096;51.338;12.524;2023-02-19T04:36:04;99795.34;;;8.86;100.00
21863;BME280;11096;51.338;12.524;2023-02-19T04:38:29;99801.13;;;8.90;100.00
21863;BME280;11096;51.338;12.524;2023-02-19T04:40:54;99811.50;;;8.90;100.00
21863;BME280;11096;51.338;12.524;2023-02-19T04:43:20;99820.41;;;8.86;100.00
21863;BME280;11096;51.338;12.524;2023-02-19T04:45:45;99812.53;;;8.87;100.00
21863;BME280;11096;51.338;12.524;2023-02-19T04:48:11;99817.50;;;8.77;100.00
21863;BME280;11096;51.338;12.524;2023-02-19T04:50:37;99825.72;;;8.84;100.00
21863;BME280;11096;51.338;12.524;2023-02-19T04:53:04;99816.88;;;8.74;100.00
21863;BME280;11096;51.338;12.524;2023-02-19T04:55:29;99813.75;;;8.69;100.00
21863;BME280;11096;51.338;12.524;2023-02-19T04:57:54;99810.16;;;8.71;100.00
21863;BME280;11096;51.338;12.524;2023-02-19T05:00:20;99812.00;;;8.69;100.00
21863;BME280;11096;51.338;12.524;2023-02-19T05:02:45;99814.16;;;8.50;100.00
21863;BME280;11096;51.338;12.524;2023-02-19T05:05:11;99799.66;;;8.60;100.00
21863;BME280;11096;51.338;12.524;2023-02-19T05:07:36;99806.19;;;8.53;100.00
21863;BME280;11096;51.338;12.524;2023-02-19T05:10:02;99813.34;;;8.62;100.00
21863;BME280;11096;51.338;12.524;2023-02-19T05:12:29;99804.84;;;8.60;100.00
21863;BME280;11096;51.338;12.524;2023-02-19T05:14:54;99806.59;;;8.47;100.00
21863;BME280;11096;51.338;12.524;2023-02-19T05:17:20;99807.50;;;8.46;100.00
21863;BME280;11096;51.338;12.524;2023-02-19T05:19:45;99809.28;;;8.45;100.00
21863;BME280;11096;51.338;12.524;2023-02-19T05:22:11;99814.97;;;8.50;100.00
21863;BME280;11096;51.338;12.524;2023-02-19T05:24:36;99814.38;;;8.59;100.00
21863;BME280;11096;51.338;12.524;2023-02-19T05:27:01;99823.72;;;8.62;100.00
21863;BME280;11096;51.338;12.524;2023-02-19T05:29:27;99824.44;;;8.64;100.00
21863;BME280;11096;51.338;12.524;2023-02-19T05:31:54;99820.91;;;8.65;100.00
21863;BME280;11096;51.338;12.524;2023-02-19T05:34:19;99822.03;;;8.61;100.00
21863;BME280;11096;51.338;12.524;2023-02-19T05:36:45;99830.88;;;8.71;100.00
21863;BME280;11096;51.338;12.524;2023-02-19T05:39:11;99829.09;;;8.72;100.00
21863;BME280;11096;51.338;12.524;2023-02-19T05:41:37;99825.78;;;8.57;100.00
21863;BME280;11096;51.338;12.524;2023-02-19T05:44:03;99828.69;;;8.65;100.00
21863;BME280;11096;51.338;12.524;2023-02-19T05:46:28;99831.19;;;8.67;100.00
21863;BME280;11096;51.338;12.524;2023-02-19T05:48:54;99830.97;;;8.70;100.00
21863;BME280;11096;51.338;12.524;2023-02-19T05:51:22;99831.41;;;8.76;100.00
21863;BME280;11096;51.338;12.524;2023-02-19T05:53:49;99833.56;;;8.82;100.00
21863;BME280;11096;51.338;12.524;2023-02-19T05:56:33;99843.22;;;8.93;100.00
21863;BME280;11096;51.338;12.524;2023-02-19T05:59:17;99840.31;;;8.85;100.00
21863;BME280;11096;51.338;12.524;2023-02-19T06:01:43;99840.94;;;8.89;100.00
21863;BME280;11096;51.338;12.524;2023-02-19T06:04:10;99837.94;;;8.95;100.00
21863;BME280;11096;51.338;12.524;2023-02-19T06:06:36;99844.88;;;8.94;100.00
21863;BME280;11096;51.338;12.524;2023-02-19T06:09:03;99846.53;;;8.95;100.00
21863;BME280;11096;51.338;12.524;2023-02-19T06:11:29;99849.97;;;8.96;100.00
21863;BME280;11096;51.338;12.524;2023-02-19T06:13:54;99852.34;;;8.99;100.00
21863;BME280;11096;51.338;12.524;2023-02-19T06:16:20;99849.44;;;8.91;100.00
21863;BME280;11096;51.338;12.524;2023-02-19T06:18:46;99860.44;;;8.94;100.00
21863;BME280;11096;51.338;12.524;2023-02-19T06:21:13;99860.34;;;8.96;100.00
21863;BME280;11096;51.338;12.524;2023-02-19T06:23:39;99870.38;;;8.88;100.00
21863;BME280;11096;51.338;12.524;2023-02-19T06:26:11;99871.41;;;8.98;100.00
21863;BME280;11096;51.338;12.524;2023-02-19T06:28:38;99873.38;;;8.94;100.00
21863;BME280;11096;51.338;12.524;2023-02-19T06:31:04;99879.50;;;8.93;100.00
21863;BME280;11096;51.338;12.524;2023-02-19T06:33:30;99888.41;;;8.89;100.00
21863;BME280;11096;51.338;12.524;2023-02-19T06:36:00;99886.56;;;9.04;100.00
21863;BME280;11096;51.338;12.524;2023-02-19T06:38:27;99888.22;;;9.05;100.00
21863;BME280;11096;51.338;12.524;2023-02-19T06:40:52;99901.09;;;9.07;100.00
21863;BME280;11096;51.338;12.524;2023-02-19T06:43:18;99899.84;;;9.12;100.00
21863;BME280;11096;51.338;12.524;2023-02-19T06:45:43;99909.47;;;9.10;100.00
21863;BME280;11096;51.338;12.524;2023-02-19T06:48:09;99933.16;;;9.18;100.00
21863;BME280;11096;51.338;12.524;2023-02-19T06:50:34;99945.97;;;9.07;100.00
21863;BME280;11096;51.338;12.524;2023-02-19T06:53:00;99951.59;;;9.01;100.00
21863;BME280;11096;51.338;12.524;2023-02-19T06:55:25;99964.34;;;8.77;100.00
21863;BME280;11096;51.338;12.524;2023-02-19T06:57:51;99977.19;;;8.51;100.00
21863;BME280;11096;51.338;12.524;2023-02-19T07:00:16;99976.03;;;8.43;100.00
21863;BME280;11096;51.338;12.524;2023-02-19T07:02:42;99982.56;;;8.34;100.00
21863;BME280;11096;51.338;12.524;2023-02-19T07:05:07;99986.56;;;8.25;100.00
21863;BME280;11096;51.338;12.524;2023-02-19T07:07:32;99987.88;;;8.04;100.00
21863;BME280;11096;51.338;12.524;2023-02-19T07:09:58;99995.44;;;7.92;100.00
21863;BME280;11096;51.338;12.524;2023-02-19T07:12:23;100012.47;;;7.68;100.00
21863;BME280;11096;51.338;12.524;2023-02-19T07:14:49;100021.50;;;7.61;100.00
21863;BME280;11096;51.338;12.524;2023-02-19T07:17:14;100027.38;;;7.48;100.00
21863;BME280;11096;51.338;12.524;2023-02-19T07:19:39;100032.19;;;7.55;100.00
21863;BME280;11096;51.338;12.524;2023-02-19T07:22:05;100033.94;;;7.54;100.00
21863;BME280;11096;51.338;12.524;2023-02-19T07:24:30;100049.91;;;7.46;100.00
21863;BME280;11096;51.338;12.524;2023-02-19T07:26:55;100045.47;;;7.48;100.00
21863;BME280;11096;51.338;12.524;2023-02-19T07:29:21;100046.19;;;7.50;100.00
21863;BME280;11096;51.338;12.524;2023-02-19T07:31:46;100064.22;;;7.52;100.00
21863;BME280;11096;51.338;12.524;2023-02-19T07:34:11;100077.22;;;7.50;100.00
21863;BME280;11096;51.338;12.524;2023-02-19T07:36:37;100084.03;;;7.37;100.00
21863;BME280;11096;51.338;12.524;2023-02-19T07:39:03;100082.31;;;7.22;100.00
21863;BME280;11096;51.338;12.524;2023-02-19T07:41:28;100093.34;;;7.09;100.00
21863;BME280;11096;51.338;12.524;2023-02-19T07:43:54;100102.34;;;7.02;100.00
21863;BME280;11096;51.338;12.524;2023-02-19T07:46:20;100108.50;;;7.00;100.00
21863;BME280;11096;51.338;12.524;2023-02-19T07:48:46;100122.94;;;7.04;100.00
21863;BME280;11096;51.338;12.524;2023-02-19T07:51:15;100129.25;;;6.98;100.00
21863;BME280;11096;51.338;12.524;2023-02-19T07:53:42;100140.50;;;6.97;100.00
21863;BME280;11096;51.338;12.524;2023-02-19T07:56:10;100149.03;;;6.99;100.00
21863;BME280;11096;51.338;12.524;2023-02-19T07:58:35;100152.97;;;6.89;100.00
21863;BME280;11096;51.338;12.524;2023-02-19T08:01:21;100161.59;;;6.90;100.00
21863;BME280;11096;51.338;12.524;2023-02-19T08:04:06;100168.19;;;6.95;100.00
21863;BME280;11096;51.338;12.524;2023-02-19T08:06:31;100165.59;;;6.79;100.00
21863;BME280;11096;51.338;12.524;2023-02-19T08:08:56;100183.31;;;6.70;100.00
21863;BME280;11096;51.338;12.524;2023-02-19T08:11:22;100179.78;;;6.55;100.00
21863;BME280;11096;51.338;12.524;2023-02-19T08:14:06;100193.34;;;6.58;100.00
21863;BME280;11096;51.338;12.524;2023-02-19T08:16:31;100192.75;;;6.53;100.00
21863;BME280;11096;51.338;12.524;2023-02-19T08:18:57;100195.75;;;6.61;100.00
21863;BME280;11096;51.338;12.524;2023-02-19T08:21:22;100204.09;;;6.66;100.00
21863;BME280;11096;51.338;12.524;2023-02-19T08:23:48;100217.41;;;6.59;100.00
21863;BME280;11096;51.338;12.524;2023-02-19T08:26:14;100217.63;;;6.72;100.00
21863;BME280;11096;51.338;12.524;2023-02-19T08:28:40;100222.94;;;6.69;100.00
21863;BME280;11096;51.338;12.524;2023-02-19T08:31:07;100243.34;;;6.57;100.00
21863;BME280;11096;51.338;12.524;2023-02-19T08:33:33;100242.84;;;6.66;100.00
21863;BME280;11096;51.338;12.524;2023-02-19T08:36:04;100253.00;;;6.87;100.00
21863;BME280;11096;51.338;12.524;2023-02-19T08:38:31;100260.47;;;6.76;100.00
21863;BME280;11096;51.338;12.524;2023-02-19T08:40:56;100274.84;;;6.47;100.00
21863;BME280;11096;51.338;12.524;2023-02-19T08:43:22;100280.38;;;6.21;100.00
21863;BME280;11096;51.338;12.524;2023-02-19T08:45:47;100291.75;;;6.17;100.00
21863;BME280;11096;51.338;12.524;2023-02-19T08:48:13;100289.72;;;6.24;100.00
21863;BME280;11096;51.338;12.524;2023-02-19T08:50:39;100313.97;;;6.20;100.00
21863;BME280;11096;51.338;12.524;2023-02-19T08:53:05;100304.16;;;6.45;100.00
21863;BME280;11096;51.338;12.524;2023-02-19T08:55:31;100307.00;;;6.22;100.00
21863;BME280;11096;51.338;12.524;2023-02-19T08:57:57;100315.91;;;6.34;100.00
21863;BME280;11096;51.338;12.524;2023-02-19T09:00:22;100323.28;;;6.41;100.00
21863;BME280;11096;51.338;12.524;2023-02-19T09:02:48;100328.88;;;6.50;100.00
21863;BME280;11096;51.338;12.524;2023-02-19T09:05:14;100336.78;;;6.47;100.00
21863;BME280;11096;51.338;12.524;2023-02-19T09:07:40;100343.53;;;6.32;100.00
21863;BME280;11096;51.338;12.524;2023-02-19T09:10:07;100346.69;;;6.19;100.00
21863;BME280;11096;51.338;12.524;2023-02-19T09:12:32;100353.56;;;6.38;100.00
21863;BME280;11096;51.338;12.524;2023-02-19T09:14:59;100358.22;;;6.49;100.00
21863;BME280;11096;51.338;12.524;2023-02-19T09:17:25;100361.38;;;6.36;100.00
21863;BME280;11096;51.338;12.524;2023-02-19T09:19:50;100373.03;;;6.45;100.00
21863;BME280;11096;51.338;12.524;2023-02-19T09:22:16;100364.81;;;6.54;100.00
21863;BME280;11096;51.338;12.524;2023-02-19T09:24:42;100371.94;;;6.49;100.00
21863;BME280;11096;51.338;12.524;2023-02-19T09:27:07;100379.66;;;6.32;100.00
21863;BME280;11096;51.338;12.524;2023-02-19T09:29:34;100386.84;;;6.61;100.00
21863;BME280;11096;51.338;12.524;2023-02-19T09:32:00;100383.13;;;7.19;100.00
21863;BME280;11096;51.338;12.524;2023-02-19T09:34:26;100377.34;;;7.31;100.00
21863;BME280;11096;51.338;12.524;2023-02-19T09:36:53;100388.75;;;7.77;100.00
21863;BME280;11096;51.338;12.524;2023-02-19T09:39:19;100386.38;;;8.05;100.00
21863;BME280;11096;51.338;12.524;2023-02-19T09:41:48;100396.47;;;9.02;100.00
21863;BME280;11096;51.338;12.524;2023-02-19T09:44:23;100405.66;;;8.47;100.00
21863;BME280;11096;51.338;12.524;2023-02-19T09:46:51;100408.69;;;8.40;100.00
21863;BME280;11096;51.338;12.524;2023-02-19T09:49:25;100415.91;;;8.17;100.00
21863;BME280;11096;51.338;12.524;2023-02-19T09:54:29;100421.91;;;8.33;100.00
21863;BME280;11096;51.338;12.524;2023-02-19T09:56:56;100425.84;;;8.56;100.00
21863;BME280;11096;51.338;12.524;2023-02-19T10:00:13;100425.84;;;9.17;100.00
21863;BME280;11096;51.338;12.524;2023-02-19T10:02:43;100427.25;;;10.08;100.00
21863;BME280;11096;51.338;12.524;2023-02-19T10:05:11;100432.75;;;10.45;100.00
21863;BME280;11096;51.338;12.524;2023-02-19T10:07:44;100431.69;;;10.35;100.00
21863;BME280;11096;51.338;12.524;2023-02-19T10:12:46;100453.28;;;10.63;100.00
21863;BME280;11096;51.338;12.524;2023-02-19T10:15:23;100470.03;;;10.86;100.00
21863;BME280;11096;51.338;12.524;2023-02-19T10:17:50;100474.75;;;10.66;100.00
21863;BME280;11096;51.338;12.524;2023-02-19T10:20:19;100471.88;;;10.29;100.00
21863;BME280;11096;51.338;12.524;2023-02-19T10:22:52;100478.75;;;9.87;100.00
21863;BME280;11096;51.338;12.524;2023-02-19T10:25:20;100477.09;;;9.28;100.00
21863;BME280;11096;51.338;12.524;2023-02-19T10:27:46;100483.09;;;9.73;100.00
21863;BME280;11096;51.338;12.524;2023-02-19T10:30:20;100487.97;;;14.08;100.00
21863;BME280;11096;51.338;12.524;2023-02-19T10:33:13;100485.81;;;15.53;100.00
21863;BME280;11096;51.338;12.524;2023-02-19T10:38:32;100479.63;;;11.76;92.23
21863;BME280;11096;51.338;12.524;2023-02-19T10:41:13;100492.53;;;10.72;95.50
21863;BME280;11096;51.338;12.524;2023-02-19T10:43:50;100508.50;;;9.96;97.81
21863;BME280;11096;51.338;12.524;2023-02-19T10:48:50;100518.50;;;9.88;100.00
21863;BME280;11096;51.338;12.524;2023-02-19T10:51:18;100519.66;;;9.54;100.00
21863;BME280;11096;51.338;12.524;2023-02-19T10:53:50;100522.13;;;10.00;100.00
21863;BME280;11096;51.338;12.524;2023-02-19T10:56:26;100528.63;;;9.93;100.00
21863;BME280;11096;51.338;12.524;2023-02-19T10:59:18;100537.06;;;10.25;100.00
21863;BME280;11096;51.338;12.524;2023-02-19T11:04:19;100545.41;;;10.44;98.61
21863;BME280;11096;51.338;12.524;2023-02-19T11:06:45;100542.19;;;10.68;96.61
21863;BME280;11096;51.338;12.524;2023-02-19T11:09:41;100560.81;;;10.47;92.38
21863;BME280;11096;51.338;12.524;2023-02-19T11:12:06;100560.78;;;9.90;87.11
21863;BME280;11096;51.338;12.524;2023-02-19T11:14:33;100559.84;;;9.91;86.48
21863;BME280;11096;51.338;12.524;2023-02-19T11:17:00;100551.31;;;9.89;85.78
21863;BME280;11096;51.338;12.524;2023-02-19T11:19:38;100559.47;;;9.83;83.38
21863;BME280;11096;51.338;12.524;2023-02-19T11:22:28;100559.78;;;10.36;81.32
21863;BME280;11096;51.338;12.524;2023-02-19T11:24:55;100555.06;;;10.57;78.11
21863;BME280;11096;51.338;12.524;2023-02-19T11:27:22;100565.84;;;11.32;75.95
21863;BME280;11096;51.338;12.524;2023-02-19T11:29:48;100573.31;;;11.64;74.31
21863;BME280;11096;51.338;12.524;2023-02-19T11:34:46;100561.09;;;12.91;71.30
21863;BME280;11096;51.338;12.524;2023-02-19T11:37:17;100575.88;;;13.03;68.23
21863;BME280;11096;51.338;12.524;2023-02-19T11:39:45;100568.66;;;12.20;66.59
21863;BME280;11096;51.338;12.524;2023-02-19T11:45:48;100581.34;;;11.73;67.32
21863;BME280;11096;51.338;12.524;2023-02-19T11:53:47;100594.19;;;11.76;67.25
21863;BME280;11096;51.338;12.524;2023-02-19T11:56:22;100599.16;;;10.85;67.76
21863;BME280;11096;51.338;12.524;2023-02-19T12:01:46;100597.44;;;9.70;70.30
21863;BME280;11096;51.338;12.524;2023-02-19T12:13:03;100590.25;;;9.89;72.53
21863;BME280;11096;51.338;12.524;2023-02-19T12:17:52;100584.06;;;11.05;71.96
21863;BME280;11096;51.338;12.524;2023-02-19T12:23:43;100598.97;;;11.03;68.66
21863;BME280;11096;51.338;12.524;2023-02-19T12:37:29;100594.94;;;10.56;70.50
21863;BME280;11096;51.338;12.524;2023-02-19T12:50:54;100613.47;;;10.06;67.80
21863;BME280;11096;51.338;12.524;2023-02-19T12:53:51;100616.31;;;9.57;68.17
21863;BME280;11096;51.338;12.524;2023-02-19T12:56:43;100614.97;;;10.25;68.66
21863;BME280;11096;51.338;12.524;2023-02-19T13:10:27;100624.00;;;12.49;62.85
21863;BME280;11096;51.338;12.524;2023-02-19T13:12:57;100625.78;;;13.22;59.92
21863;BME280;11096;51.338;12.524;2023-02-19T13:15:34;100613.19;;;13.40;57.27
21863;BME280;11096;51.338;12.524;2023-02-19T13:18:04;100619.31;;;13.52;55.29
21863;BME280;11096;51.338;12.524;2023-02-19T13:20:37;100614.38;;;14.18;55.08
21863;BME280;11096;51.338;12.524;2023-02-19T13:26:15;100617.38;;;14.58;54.55
21863;BME280;11096;51.338;12.524;2023-02-19T13:35:15;100618.38;;;17.87;45.77
21863;BME280;11096;51.338;12.524;2023-02-19T13:37:45;100621.25;;;16.04;45.55
21863;BME280;11096;51.338;12.524;2023-02-19T13:40:38;100633.13;;;14.12;49.48
21863;BME280;11096;51.338;12.524;2023-02-19T13:43:28;100640.28;;;13.50;52.01
21863;BME280;11096;51.338;12.524;2023-02-19T13:46:05;100631.72;;;14.53;51.89
21863;BME280;11096;51.338;12.524;2023-02-19T13:48:34;100628.91;;;14.67;51.06
21863;BME280;11096;51.338;12.524;2023-02-19T13:59:18;100645.28;;;13.53;51.19
21863;BME280;11096;51.338;12.524;2023-02-19T14:04:19;100659.41;;;11.88;55.00
21863;BME280;11096;51.338;12.524;2023-02-19T14:30:28;100679.69;;;10.14;61.74
21863;BME280;11096;51.338;12.524;2023-02-19T14:32:54;100673.88;;;10.24;60.98
21863;BME280;11096;51.338;12.524;2023-02-19T14:35:29;100674.50;;;10.44;60.78
21863;BME280;11096;51.338;12.524;2023-02-19T14:37:57;100683.84;;;10.61;59.64
21863;BME280;11096;51.338;12.524;2023-02-19T14:40:29;100672.63;;;10.89;59.32
21863;BME280;11096;51.338;12.524;2023-02-19T14:42:58;100690.75;;;10.76;60.06
21863;BME280;11096;51.338;12.524;2023-02-19T14:45:26;100690.84;;;10.74;59.10
21863;BME280;11096;51.338;12.524;2023-02-19T14:47:54;100689.19;;;10.73;59.58
21863;BME280;11096;51.338;12.524;2023-02-19T14:50:31;100689.44;;;10.40;60.10
21863;BME280;11096;51.338;12.524;2023-02-19T14:52:59;100688.88;;;10.35;61.48
21863;BME280;11096;51.338;12.524;2023-02-19T14:55:33;100683.44;;;10.24;61.02
21863;BME280;11096;51.338;12.524;2023-02-19T14:58:04;100686.28;;;10.05;62.28
21863;BME280;11096;51.338;12.524;2023-02-19T15:00:38;100674.72;;;9.80;61.50
21863;BME280;11096;51.338;12.524;2023-02-19T15:03:05;100674.63;;;9.36;62.02
21863;BME280;11096;51.338;12.524;2023-02-19T15:05:34;100679.97;;;9.01;62.84
21863;BME280;11096;51.338;12.524;2023-02-19T15:08:11;100683.63;;;8.97;63.81
21863;BME280;11096;51.338;12.524;2023-02-19T15:10:42;100692.25;;;8.81;64.14
21863;BME280;11096;51.338;12.524;2023-02-19T15:13:09;100695.59;;;8.50;64.48
21863;BME280;11096;51.338;12.524;2023-02-19T15:15:43;100699.00;;;8.33;64.13
21863;BME280;11096;51.338;12.524;2023-02-19T15:18:18;100705.84;;;8.17;65.27
21863;BME280;11096;51.338;12.524;2023-02-19T15:20:45;100698.16;;;7.81;63.26
21863;BME280;11096;51.338;12.524;2023-02-19T15:23:16;100703.13;;;8.03;65.76